sensor_id;sensor_type;location;lat;lon;timestamp;pressure;altitude;pressure_sealevel;temperature;humidity
38285;BME280;24088;42.664;23.354;2022-09-24T00:00:07;95384.16;;;10.85;90.06
38285;BME280;24088;42.664;23.354;2022-09-24T00:01:09;95387.94;;;10.64;91.95
38285;BME280;24088;42.664;23.354;2022-09-24T00:02:10;95388.78;;;10.57;93.31
38285;BME280;24088;42.664;23.354;2022-09-24T00:03:11;95388.03;;;10.57;93.36
38285;BME280;24088;42.664;23.354;2022-09-24T00:04:12;95388.25;;;10.69;92.60
38285;BME280;24088;42.664;23.354;2022-09-24T00:05:13;95390.66;;;10.67;91.91
38285;BME280;24088;42.664;23.354;2022-09-24T00:06:14;95394.22;;;10.64;92.19
38285;BME280;24088;42.664;23.354;2022-09-24T00:07:18;95387.03;;;10.74;91.59
38285;BME280;24088;42.664;23.354;2022-09-24T00:08:20;95391.59;;;10.88;89.85
38285;BME280;24088;42.664;23.354;2022-09-24T00:09:20;95389.19;;;10.90;89.69
38285;BME280;24088;42.664;23.354;2022-09-24T00:10:22;95389.41;;;10.72;91.03
38285;BME280;24088;42.664;23.354;2022-09-24T00:11:25;95395.66;;;10.76;91.25
38285;BME280;24088;42.664;23.354;2022-09-24T00:12:26;95391.22;;;10.86;90.80
38285;BME280;24088;42.664;23.354;2022-09-24T00:13:28;95388.50;;;10.82;90.96
38285;BME280;24088;42.664;23.354;2022-09-24T00:14:29;95387.06;;;10.70;91.24
38285;BME280;24088;42.664;23.354;2022-09-24T00:15:34;95388.91;;;10.81;90.77
38285;BME280;24088;42.664;23.354;2022-09-24T00:16:35;95387.22;;;10.90;89.72
38285;BME280;24088;42.664;23.354;2022-09-24T00:17:36;95385.63;;;10.62;91.10
38285;BME280;24088;42.664;23.354;2022-09-24T00:18:37;95385.28;;;10.57;92.43
38285;BME280;24088;42.664;23.354;2022-09-24T00:19:38;95387.06;;;10.70;91.69
38285;BME280;24088;42.664;23.354;2022-09-24T00:20:39;95382.53;;;10.57;92.95
38285;BME280;24088;42.664;23.354;2022-09-24T00:21:41;95384.72;;;10.72;91.82
38285;BME280;24088;42.664;23.354;2022-09-24T00:22:41;95385.03;;;10.78;91.09
38285;BME280;24088;42.664;23.354;2022-09-24T00:23:43;95382.63;;;10.84;90.23
38285;BME280;24088;42.664;23.354;2022-09-24T00:24:44;95389.25;;;10.86;89.16
38285;BME280;24088;42.664;23.354;2022-09-24T00:26:03;95390.81;;;10.53;91.06
38285;BME280;24088;42.664;23.354;2022-09-24T00:27:23;95384.03;;;10.61;92.67
38285;BME280;24088;42.664;23.354;2022-09-24T00:28:25;95382.31;;;10.74;91.33
38285;BME280;24088;42.664;23.354;2022-09-24T00:29:25;95388.03;;;10.57;92.66
38285;BME280;24088;42.664;23.354;2022-09-24T00:30:27;95383.06;;;10.44;93.55
38285;BME280;24088;42.664;23.354;2022-09-24T00:31:27;95390.94;;;10.42;94.68
38285;BME280;24088;42.664;23.354;2022-09-24T00:32:29;95385.38;;;10.49;94.32
38285;BME280;24088;42.664;23.354;2022-09-24T00:33:30;95395.38;;;10.33;94.55
38285;BME280;24088;42.664;23.354;2022-09-24T00:34:33;95387.94;;;10.30;96.10
38285;BME280;24088;42.664;23.354;2022-09-24T00:35:35;95387.41;;;10.42;95.02
38285;BME280;24088;42.664;23.354;2022-09-24T00:36:36;95387.78;;;10.44;95.05
38285;BME280;24088;42.664;23.354;2022-09-24T00:37:38;95388.16;;;10.46;94.57
38285;BME280;24088;42.664;23.354;2022-09-24T00:38:38;95392.94;;;10.38;94.55
38285;BME280;24088;42.664;23.354;2022-09-24T00:39:40;95393.78;;;10.32;95.15
38285;BME280;24088;42.664;23.354;2022-09-24T00:40:41;95388.22;;;10.39;94.83
38285;BME280;24088;42.664;23.354;2022-09-24T00:41:42;95387.50;;;10.35;95.22
38285;BME280;24088;42.664;23.354;2022-09-24T00:42:49;95385.97;;;10.30;95.64
38285;BME280;24088;42.664;23.354;2022-09-24T00:43:49;95381.97;;;10.38;94.95
38285;BME280;24088;42.664;23.354;2022-09-24T00:44:52;95387.50;;;10.35;95.11
38285;BME280;24088;42.664;23.354;2022-09-24T00:45:54;95388.38;;;10.24;95.55
38285;BME280;24088;42.664;23.354;2022-09-24T00:46:57;95380.47;;;10.30;95.31
38285;BME280;24088;42.664;23.354;2022-09-24T00:47:57;95393.00;;;10.31;94.92
38285;BME280;24088;42.664;23.354;2022-09-24T00:48:59;95385.19;;;10.30;95.42
38285;BME280;24088;42.664;23.354;2022-09-24T00:50:03;95379.69;;;10.33;94.81
38285;BME280;24088;42.664;23.354;2022-09-24T00:51:05;95385.31;;;10.15;96.70
38285;BME280;24088;42.664;23.354;2022-09-24T00:52:07;95380.81;;;10.36;95.17
38285;BME280;24088;42.664;23.354;2022-09-24T00:53:09;95384.91;;;10.17;95.56
38285;BME280;24088;42.664;23.354;2022-09-24T00:54:13;95380.91;;;10.28;95.12
38285;BME280;24088;42.664;23.354;2022-09-24T00:55:17;95379.22;;;10.38;94.27
38285;BME280;24088;42.664;23.354;2022-09-24T00:56:19;95385.91;;;10.37;93.86
38285;BME280;24088;42.664;23.354;2022-09-24T00:57:22;95381.16;;;10.41;93.61
38285;BME280;24088;42.664;23.354;2022-09-24T00:58:24;95378.38;;;10.45;93.47
38285;BME280;24088;42.664;23.354;2022-09-24T00:59:27;95361.09;;;10.44;92.67
38285;BME280;24088;42.664;23.354;2022-09-24T01:00:29;95377.44;;;10.59;92.01
38285;BME280;24088;42.664;23.354;2022-09-24T01:01:31;95365.59;;;10.62;91.56
38285;BME280;24088;42.664;23.354;2022-09-24T01:02:32;95375.81;;;10.61;91.45
38285;BME280;24088;42.664;23.354;2022-09-24T01:03:36;95369.09;;;10.32;93.72
38285;BME280;24088;42.664;23.354;2022-09-24T01:04:41;95368.16;;;10.45;92.98
38285;BME280;24088;42.664;23.354;2022-09-24T01:05:41;95366.56;;;10.48;92.32
38285;BME280;24088;42.664;23.354;2022-09-24T01:06:43;95369.50;;;10.30;93.76
38285;BME280;24088;42.664;23.354;2022-09-24T01:07:44;95372.56;;;10.36;93.28
38285;BME280;24088;42.664;23.354;2022-09-24T01:08:47;95368.41;;;10.20;93.54
38285;BME280;24088;42.664;23.354;2022-09-24T01:09:47;95372.69;;;10.25;93.87
38285;BME280;24088;42.664;23.354;2022-09-24T01:11:05;95363.94;;;10.37;92.87
38285;BME280;24088;42.664;23.354;2022-09-24T01:12:13;95370.00;;;10.18;93.80
38285;BME280;24088;42.664;23.354;2022-09-24T01:13:29;95375.19;;;10.09;93.62
38285;BME280;24088;42.664;23.354;2022-09-24T01:14:41;95370.91;;;10.04;95.21
38285;BME280;24088;42.664;23.354;2022-09-24T01:15:47;95374.81;;;10.07;94.71
38285;BME280;24088;42.664;23.354;2022-09-24T01:16:52;95373.72;;;9.97;95.80
38285;BME280;24088;42.664;23.354;2022-09-24T01:17:59;95375.34;;;9.91;96.91
38285;BME280;24088;42.664;23.354;2022-09-24T01:19:06;95371.88;;;9.87;96.78
38285;BME280;24088;42.664;23.354;2022-09-24T01:21:41;95377.69;;;9.92;96.14
38285;BME280;24088;42.664;23.354;2022-09-24T01:22:48;95370.72;;;9.81;97.68
38285;BME280;24088;42.664;23.354;2022-09-24T01:23:58;95374.09;;;9.54;99.31
38285;BME280;24088;42.664;23.354;2022-09-24T01:25:02;95373.59;;;9.70;99.04
38285;BME280;24088;42.664;23.354;2022-09-24T01:26:11;95370.38;;;9.78;97.73
38285;BME280;24088;42.664;23.354;2022-09-24T01:27:19;95366.81;;;9.82;97.87
38285;BME280;24088;42.664;23.354;2022-09-24T01:28:26;95375.78;;;9.89;96.06
38285;BME280;24088;42.664;23.354;2022-09-24T01:30:54;95370.00;;;9.76;96.84
38285;BME280;24088;42.664;23.354;2022-09-24T01:32:00;95369.22;;;9.76;96.91
38285;BME280;24088;42.664;23.354;2022-09-24T01:33:05;95370.41;;;9.75;97.98
38285;BME280;24088;42.664;23.354;2022-09-24T01:34:08;95368.41;;;9.79;97.72
38285;BME280;24088;42.664;23.354;2022-09-24T01:35:13;95366.72;;;9.92;96.65
38285;BME280;24088;42.664;23.354;2022-09-24T01:36:17;95362.75;;;9.97;95.73
38285;BME280;24088;42.664;23.354;2022-09-24T01:37:19;95367.38;;;10.07;95.15
38285;BME280;24088;42.664;23.354;2022-09-24T01:38:23;95372.00;;;10.14;94.57
38285;BME280;24088;42.664;23.354;2022-09-24T01:39:25;95371.81;;;9.94;95.04
38285;BME280;24088;42.664;23.354;2022-09-24T01:40:27;95368.31;;;9.90;96.56
38285;BME280;24088;42.664;23.354;2022-09-24T01:41:29;95367.09;;;9.94;95.57
38285;BME280;24088;42.664;23.354;2022-09-24T01:42:32;95370.59;;;9.98;94.85
38285;BME280;24088;42.664;23.354;2022-09-24T01:43:33;95362.72;;;10.00;95.08
38285;BME280;24088;42.664;23.354;2022-09-24T01:44:35;95369.72;;;10.05;94.23
38285;BME280;24088;42.664;23.354;2022-09-24T01:45:37;95361.69;;;9.87;94.82
38285;BME280;24088;42.664;23.354;2022-09-24T01:46:41;95372.59;;;9.94;94.40
38285;BME280;24088;42.664;23.354;2022-09-24T01:47:42;95370.72;;;9.84;95.34
38285;BME280;24088;42.664;23.354;2022-09-24T01:48:45;95373.59;;;9.66;97.64
38285;BME280;24088;42.664;23.354;2022-09-24T01:49:45;95377.97;;;9.60;97.99
38285;BME280;24088;42.664;23.354;2022-09-24T01:50:48;95379.56;;;9.54;97.94
38285;BME280;24088;42.664;23.354;2022-09-24T01:51:52;95379.72;;;9.33;100.00
38285;BME280;24088;42.664;23.354;2022-09-24T01:52:56;95375.56;;;9.69;98.13
38285;BME280;24088;42.664;23.354;2022-09-24T01:54:01;95378.03;;;9.53;98.09
38285;BME280;24088;42.664;23.354;2022-09-24T01:55:04;95376.81;;;9.58;98.99
38285;BME280;24088;42.664;23.354;2022-09-24T01:56:07;95380.91;;;9.35;99.94
38285;BME280;24088;42.664;23.354;2022-09-24T01:57:11;95382.72;;;9.56;99.20
38285;BME280;24088;42.664;23.354;2022-09-24T01:58:13;95384.69;;;9.52;98.35
38285;BME280;24088;42.664;23.354;2022-09-24T01:59:17;95382.78;;;9.45;99.74
38285;BME280;24088;42.664;23.354;2022-09-24T02:00:20;95378.44;;;9.51;99.32
38285;BME280;24088;42.664;23.354;2022-09-24T02:01:22;95382.00;;;9.45;100.00
38285;BME280;24088;42.664;23.354;2022-09-24T02:02:26;95383.03;;;9.62;98.85
38285;BME280;24088;42.664;23.354;2022-09-24T02:03:30;95382.75;;;9.49;98.90
38285;BME280;24088;42.664;23.354;2022-09-24T02:04:35;95377.88;;;9.71;97.52
38285;BME280;24088;42.664;23.354;2022-09-24T02:05:39;95379.09;;;9.66;96.97
38285;BME280;24088;42.664;23.354;2022-09-24T02:06:43;95383.34;;;9.74;96.49
38285;BME280;24088;42.664;23.354;2022-09-24T02:07:47;95390.06;;;9.66;96.63
38285;BME280;24088;42.664;23.354;2022-09-24T02:08:51;95388.09;;;9.67;96.67
38285;BME280;24088;42.664;23.354;2022-09-24T02:09:55;95382.78;;;9.45;97.83
38285;BME280;24088;42.664;23.354;2022-09-24T02:10:56;95385.06;;;9.54;98.10
38285;BME280;24088;42.664;23.354;2022-09-24T02:12:02;95390.84;;;9.67;96.64
38285;BME280;24088;42.664;23.354;2022-09-24T02:13:06;95394.50;;;9.46;98.18
38285;BME280;24088;42.664;23.354;2022-09-24T02:14:10;95396.03;;;9.54;97.06
38285;BME280;24088;42.664;23.354;2022-09-24T02:15:14;95398.25;;;9.70;95.67
38285;BME280;24088;42.664;23.354;2022-09-24T02:16:17;95399.47;;;9.65;96.18
38285;BME280;24088;42.664;23.354;2022-09-24T02:17:21;95399.19;;;9.52;97.75
38285;BME280;24088;42.664;23.354;2022-09-24T02:18:25;95404.69;;;9.49;97.92
38285;BME280;24088;42.664;23.354;2022-09-24T02:19:28;95404.25;;;9.54;98.06
38285;BME280;24088;42.664;23.354;2022-09-24T02:20:30;95399.25;;;9.42;98.49
38285;BME280;24088;42.664;23.354;2022-09-24T02:21:33;95410.25;;;9.35;99.99
38285;BME280;24088;42.664;23.354;2022-09-24T02:22:36;95399.75;;;9.26;100.00
38285;BME280;24088;42.664;23.354;2022-09-24T02:23:38;95409.41;;;9.41;99.57
38285;BME280;24088;42.664;23.354;2022-09-24T02:24:42;95404.31;;;9.47;98.79
38285;BME280;24088;42.664;23.354;2022-09-24T02:25:45;95407.72;;;9.62;96.77
38285;BME280;24088;42.664;23.354;2022-09-24T02:26:49;95402.72;;;9.46;97.68
38285;BME280;24088;42.664;23.354;2022-09-24T02:27:50;95415.22;;;9.50;97.44
38285;BME280;24088;42.664;23.354;2022-09-24T02:28:52;95399.94;;;9.53;96.63
38285;BME280;24088;42.664;23.354;2022-09-24T02:29:53;95409.84;;;9.40;97.84
38285;BME280;24088;42.664;23.354;2022-09-24T02:30:56;95408.75;;;9.23;98.69
38285;BME280;24088;42.664;23.354;2022-09-24T02:31:58;95416.56;;;9.24;99.78
38285;BME280;24088;42.664;23.354;2022-09-24T02:33:00;95404.06;;;9.23;98.66
38285;BME280;24088;42.664;23.354;2022-09-24T02:34:03;95416.53;;;9.32;98.79
38285;BME280;24088;42.664;23.354;2022-09-24T02:35:21;95413.78;;;9.35;98.74
38285;BME280;24088;42.664;23.354;2022-09-24T02:36:23;95425.22;;;9.16;100.00
38285;BME280;24088;42.664;23.354;2022-09-24T02:37:24;95419.41;;;9.10;100.00
38285;BME280;24088;42.664;23.354;2022-09-24T02:38:25;95418.16;;;9.25;100.00
38285;BME280;24088;42.664;23.354;2022-09-24T02:39:26;95422.41;;;9.34;99.17
38285;BME280;24088;42.664;23.354;2022-09-24T02:40:27;95417.31;;;9.32;98.74
38285;BME280;24088;42.664;23.354;2022-09-24T02:41:28;95415.34;;;9.33;99.05
38285;BME280;24088;42.664;23.354;2022-09-24T02:42:30;95422.84;;;9.25;98.94
38285;BME280;24088;42.664;23.354;2022-09-24T02:43:30;95422.78;;;9.36;98.26
38285;BME280;24088;42.664;23.354;2022-09-24T02:44:35;95423.63;;;9.25;99.09
38285;BME280;24088;42.664;23.354;2022-09-24T02:45:35;95420.84;;;9.33;98.42
38285;BME280;24088;42.664;23.354;2022-09-24T02:46:37;95425.63;;;9.21;98.80
38285;BME280;24088;42.664;23.354;2022-09-24T02:47:40;95425.97;;;9.27;98.43
38285;BME280;24088;42.664;23.354;2022-09-24T02:48:42;95425.53;;;9.32;97.93
38285;BME280;24088;42.664;23.354;2022-09-24T02:49:44;95429.00;;;9.43;97.60
38285;BME280;24088;42.664;23.354;2022-09-24T02:50:45;95427.75;;;9.55;96.44
38285;BME280;24088;42.664;23.354;2022-09-24T02:51:46;95423.19;;;9.31;97.77
38285;BME280;24088;42.664;23.354;2022-09-24T02:52:47;95420.38;;;9.45;97.44
38285;BME280;24088;42.664;23.354;2022-09-24T02:53:48;95425.88;;;9.41;97.00
38285;BME280;24088;42.664;23.354;2022-09-24T02:54:49;95434.94;;;9.27;98.40
38285;BME280;24088;42.664;23.354;2022-09-24T02:55:50;95429.09;;;9.25;98.24
38285;BME280;24088;42.664;23.354;2022-09-24T02:56:51;95431.00;;;9.32;97.60
38285;BME280;24088;42.664;23.354;2022-09-24T02:57:52;95439.63;;;9.31;97.46
38285;BME280;24088;42.664;23.354;2022-09-24T02:58:54;95431.88;;;9.18;98.40
38285;BME280;24088;42.664;23.354;2022-09-24T02:59:54;95436.59;;;9.11;99.04
38285;BME280;24088;42.664;23.354;2022-09-24T03:00:56;95436.22;;;9.12;99.45
38285;BME280;24088;42.664;23.354;2022-09-24T03:01:56;95437.72;;;9.20;99.67
38285;BME280;24088;42.664;23.354;2022-09-24T03:02:58;95430.22;;;9.32;97.66
38285;BME280;24088;42.664;23.354;2022-09-24T03:03:59;95431.81;;;9.29;97.67
38285;BME280;24088;42.664;23.354;2022-09-24T03:05:02;95435.72;;;9.28;97.65
38285;BME280;24088;42.664;23.354;2022-09-24T03:06:02;95436.19;;;9.16;98.46
38285;BME280;24088;42.664;23.354;2022-09-24T03:07:04;95436.91;;;9.27;98.33
38285;BME280;24088;42.664;23.354;2022-09-24T03:08:04;95429.91;;;9.19;98.29
38285;BME280;24088;42.664;23.354;2022-09-24T03:09:06;95428.75;;;9.16;98.16
38285;BME280;24088;42.664;23.354;2022-09-24T03:10:07;95435.81;;;9.14;98.43
38285;BME280;24088;42.664;23.354;2022-09-24T03:11:09;95434.66;;;9.11;98.26
38285;BME280;24088;42.664;23.354;2022-09-24T03:12:10;95430.91;;;8.73;100.00
38285;BME280;24088;42.664;23.354;2022-09-24T03:13:11;95440.63;;;8.95;100.00
38285;BME280;24088;42.664;23.354;2022-09-24T03:14:12;95434.69;;;9.04;100.00
38285;BME280;24088;42.664;23.354;2022-09-24T03:15:13;95423.00;;;9.00;100.00
38285;BME280;24088;42.664;23.354;2022-09-24T03:16:14;95433.22;;;8.85;100.00
38285;BME280;24088;42.664;23.354;2022-09-24T03:17:16;95434.28;;;9.06;100.00
38285;BME280;24088;42.664;23.354;2022-09-24T03:18:17;95429.94;;;9.12;99.85
38285;BME280;24088;42.664;23.354;2022-09-24T03:19:18;95430.78;;;9.01;100.00
38285;BME280;24088;42.664;23.354;2022-09-24T03:20:20;95430.34;;;9.10;100.00
38285;BME280;24088;42.664;23.354;2022-09-24T03:21:23;95431.97;;;9.00;100.00
38285;BME280;24088;42.664;23.354;2022-09-24T03:22:23;95426.94;;;8.92;100.00
38285;BME280;24088;42.664;23.354;2022-09-24T03:23:25;95427.69;;;8.96;100.00
38285;BME280;24088;42.664;23.354;2022-09-24T03:24:26;95432.84;;;8.87;100.00
38285;BME280;24088;42.664;23.354;2022-09-24T03:25:27;95437.13;;;8.88;100.00
38285;BME280;24088;42.664;23.354;2022-09-24T03:26:28;95429.69;;;8.85;100.00
38285;BME280;24088;42.664;23.354;2022-09-24T03:27:30;95435.09;;;8.99;100.00
38285;BME280;24088;42.664;23.354;2022-09-24T03:28:30;95439.09;;;8.87;100.00
38285;BME280;24088;42.664;23.354;2022-09-24T03:29:32;95433.97;;;8.86;100.00
38285;BME280;24088;42.664;23.354;2022-09-24T03:31:02;95438.69;;;8.89;100.00
38285;BME280;24088;42.664;23.354;2022-09-24T03:32:03;95434.75;;;8.86;100.00
38285;BME280;24088;42.664;23.354;2022-09-24T03:33:05;95441.38;;;8.96;100.00
38285;BME280;24088;42.664;23.354;2022-09-24T03:34:05;95437.47;;;8.93;100.00
38285;BME280;24088;42.664;23.354;2022-09-24T03:35:07;95439.50;;;8.78;100.00
38285;BME280;24088;42.664;23.354;2022-09-24T03:36:10;95437.13;;;8.84;100.00
38285;BME280;24088;42.664;23.354;2022-09-24T03:37:12;95438.31;;;8.87;100.00
38285;BME280;24088;42.664;23.354;2022-09-24T03:38:13;95445.28;;;8.95;100.00
38285;BME280;24088;42.664;23.354;2022-09-24T03:39:14;95446.19;;;8.74;100.00
38285;BME280;24088;42.664;23.354;2022-09-24T03:40:15;95451.16;;;8.93;100.00
38285;BME280;24088;42.664;23.354;2022-09-24T03:41:16;95448.50;;;8.83;100.00
38285;BME280;24088;42.664;23.354;2022-09-24T03:42:17;95448.16;;;8.66;100.00
38285;BME280;24088;42.664;23.354;2022-09-24T03:43:18;95451.66;;;8.70;100.00
38285;BME280;24088;42.664;23.354;2022-09-24T03:44:19;95456.38;;;8.66;100.00
38285;BME280;24088;42.664;23.354;2022-09-24T03:45:20;95454.34;;;8.77;100.00
38285;BME280;24088;42.664;23.354;2022-09-24T03:46:21;95452.34;;;8.96;100.00
38285;BME280;24088;42.664;23.354;2022-09-24T03:47:29;95457.44;;;8.90;100.00
38285;BME280;24088;42.664;23.354;2022-09-24T03:48:30;95445.75;;;8.79;100.00
38285;BME280;24088;42.664;23.354;2022-09-24T03:49:31;95448.16;;;8.70;100.00
38285;BME280;24088;42.664;23.354;2022-09-24T03:50:34;95448.50;;;8.72;100.00
38285;BME280;24088;42.664;23.354;2022-09-24T03:51:37;95448.09;;;8.73;100.00
38285;BME280;24088;42.664;23.354;2022-09-24T03:52:37;95448.09;;;8.73;100.00
38285;BME280;24088;42.664;23.354;2022-09-24T03:53:39;95444.94;;;8.82;100.00
38285;BME280;24088;42.664;23.354;2022-09-24T03:54:41;95453.91;;;8.97;100.00
38285;BME280;24088;42.664;23.354;2022-09-24T03:55:43;95454.31;;;8.92;100.00
38285;BME280;24088;42.664;23.354;2022-09-24T03:56:43;95450.47;;;8.78;100.00
38285;BME280;24088;42.664;23.354;2022-09-24T03:57:45;95453.16;;;8.82;100.00
38285;BME280;24088;42.664;23.354;2022-09-24T03:58:45;95455.91;;;8.82;100.00
38285;BME280;24088;42.664;23.354;2022-09-24T03:59:47;95449.63;;;8.85;100.00
38285;BME280;24088;42.664;23.354;2022-09-24T04:00:49;95459.44;;;8.79;100.00
38285;BME280;24088;42.664;23.354;2022-09-24T04:01:51;95457.47;;;8.87;100.00
38285;BME280;24088;42.664;23.354;2022-09-24T04:02:51;95458.16;;;9.05;100.00
38285;BME280;24088;42.664;23.354;2022-09-24T04:03:53;95455.44;;;9.05;100.00
38285;BME280;24088;42.664;23.354;2022-09-24T04:04:53;95455.09;;;8.85;100.00
38285;BME280;24088;42.664;23.354;2022-09-24T04:05:55;95458.22;;;8.91;100.00
38285;BME280;24088;42.664;23.354;2022-09-24T04:06:57;95454.34;;;8.81;100.00
38285;BME280;24088;42.664;23.354;2022-09-24T04:07:58;95452.38;;;8.85;100.00
38285;BME280;24088;42.664;23.354;2022-09-24T04:08:59;95455.94;;;8.75;100.00
38285;BME280;24088;42.664;23.354;2022-09-24T04:10:00;95454.81;;;8.58;100.00
38285;BME280;24088;42.664;23.354;2022-09-24T04:11:01;95450.09;;;8.69;100.00
38285;BME280;24088;42.664;23.354;2022-09-24T04:12:03;95452.44;;;8.71;100.00
38285;BME280;24088;42.664;23.354;2022-09-24T04:13:04;95463.38;;;8.67;100.00
38285;BME280;24088;42.664;23.354;2022-09-24T04:14:06;95457.56;;;8.62;100.00
38285;BME280;24088;42.664;23.354;2022-09-24T04:15:06;95460.66;;;8.60;100.00
38285;BME280;24088;42.664;23.354;2022-09-24T04:16:08;95458.25;;;8.80;100.00
38285;BME280;24088;42.664;23.354;2022-09-24T04:17:08;95454.34;;;8.85;100.00
38285;BME280;24088;42.664;23.354;2022-09-24T04:18:10;95454.41;;;8.63;100.00
38285;BME280;24088;42.664;23.354;2022-09-24T04:19:11;95457.50;;;8.72;100.00
38285;BME280;24088;42.664;23.354;2022-09-24T04:20:13;95454.78;;;8.69;100.00
38285;BME280;24088;42.664;23.354;2022-09-24T04:21:13;95462.25;;;8.61;100.00
38285;BME280;24088;42.664;23.354;2022-09-24T04:22:16;95463.81;;;8.59;100.00
38285;BME280;24088;42.664;23.354;2022-09-24T04:23:17;95459.09;;;8.66;100.00
38285;BME280;24088;42.664;23.354;2022-09-24T04:24:18;95464.16;;;8.68;100.00
38285;BME280;24088;42.664;23.354;2022-09-24T04:25:20;95464.59;;;8.59;100.00
38285;BME280;24088;42.664;23.354;2022-09-24T04:26:22;95463.81;;;8.59;100.00
38285;BME280;24088;42.664;23.354;2022-09-24T04:27:23;95467.69;;;8.68;100.00
38285;BME280;24088;42.664;23.354;2022-09-24T04:28:24;95469.69;;;8.57;100.00
38285;BME280;24088;42.664;23.354;2022-09-24T04:29:25;95473.25;;;8.40;100.00
38285;BME280;24088;42.664;23.354;2022-09-24T04:30:26;95477.06;;;8.64;100.00
38285;BME280;24088;42.664;23.354;2022-09-24T04:31:27;95471.59;;;8.60;100.00
38285;BME280;24088;42.664;23.354;2022-09-24T04:32:29;95470.03;;;8.66;100.00
38285;BME280;24088;42.664;23.354;2022-09-24T04:33:29;95480.16;;;8.80;100.00
38285;BME280;24088;42.664;23.354;2022-09-24T04:34:31;95480.94;;;8.73;100.00
38285;BME280;24088;42.664;23.354;2022-09-24T04:35:32;95476.66;;;8.80;100.00
38285;BME280;24088;42.664;23.354;2022-09-24T04:36:35;95484.09;;;8.75;100.00
38285;BME280;24088;42.664;23.354;2022-09-24T04:37:37;95477.09;;;8.60;100.00
38285;BME280;24088;42.664;23.354;2022-09-24T04:38:38;95470.88;;;8.20;100.00
38285;BME280;24088;42.664;23.354;2022-09-24T04:39:39;95480.25;;;8.48;100.00
38285;BME280;24088;42.664;23.354;2022-09-24T04:40:41;95476.72;;;8.47;100.00
38285;BME280;24088;42.664;23.354;2022-09-24T04:41:41;95481.00;;;8.63;100.00
38285;BME280;24088;42.664;23.354;2022-09-24T04:42:43;95479.09;;;8.45;100.00
38285;BME280;24088;42.664;23.354;2022-09-24T04:43:45;95485.31;;;8.53;100.00
38285;BME280;24088;42.664;23.354;2022-09-24T04:44:46;95479.81;;;8.64;100.00
38285;BME280;24088;42.664;23.354;2022-09-24T04:45:47;95481.00;;;8.70;100.00
38285;BME280;24088;42.664;23.354;2022-09-24T04:46:48;95482.59;;;8.57;100.00
38285;BME280;24088;42.664;23.354;2022-09-24T04:47:49;95477.53;;;8.41;100.00
38285;BME280;24088;42.664;23.354;2022-09-24T04:48:55;95476.34;;;8.42;100.00
38285;BME280;24088;42.664;23.354;2022-09-24T04:49:56;95476.72;;;8.26;100.00
38285;BME280;24088;42.664;23.354;2022-09-24T04:50:59;95472.06;;;8.37;100.00
38285;BME280;24088;42.664;23.354;2022-09-24T04:52:01;95475.16;;;8.43;100.00
38285;BME280;24088;42.664;23.354;2022-09-24T04:53:05;95471.66;;;8.53;100.00
38285;BME280;24088;42.664;23.354;2022-09-24T04:54:07;95477.50;;;8.59;100.00
38285;BME280;24088;42.664;23.354;2022-09-24T04:55:08;95477.50;;;8.55;100.00
38285;BME280;24088;42.664;23.354;2022-09-24T04:56:09;95475.56;;;8.45;100.00
38285;BME280;24088;42.664;23.354;2022-09-24T04:57:11;95470.88;;;8.42;100.00
38285;BME280;24088;42.664;23.354;2022-09-24T04:58:11;95475.56;;;8.38;100.00
38285;BME280;24088;42.664;23.354;2022-09-24T04:59:13;95479.09;;;8.49;100.00
38285;BME280;24088;42.664;23.354;2022-09-24T05:00:14;95479.44;;;8.65;100.00
38285;BME280;24088;42.664;23.354;2022-09-24T05:01:16;95473.97;;;8.58;100.00
38285;BME280;24088;42.664;23.354;2022-09-24T05:02:17;95476.28;;;8.67;100.00
38285;BME280;24088;42.664;23.354;2022-09-24T05:03:18;95483.75;;;8.56;100.00
38285;BME280;24088;42.664;23.354;2022-09-24T05:04:20;95484.50;;;8.70;100.00
38285;BME280;24088;42.664;23.354;2022-09-24T05:05:21;95483.72;;;8.63;100.00
38285;BME280;24088;42.664;23.354;2022-09-24T05:06:22;95483.38;;;8.57;100.00
38285;BME280;24088;42.664;23.354;2022-09-24T05:07:24;95480.22;;;8.51;100.00
38285;BME280;24088;42.664;23.354;2022-09-24T05:08:26;95486.09;;;8.53;100.00
38285;BME280;24088;42.664;23.354;2022-09-24T05:09:27;95476.72;;;8.58;100.00
38285;BME280;24088;42.664;23.354;2022-09-24T05:10:29;95488.00;;;8.74;100.00
38285;BME280;24088;42.664;23.354;2022-09-24T05:11:32;95481.34;;;8.79;100.00
38285;BME280;24088;42.664;23.354;2022-09-24T05:12:32;95479.38;;;8.80;100.00
38285;BME280;24088;42.664;23.354;2022-09-24T05:13:35;95487.19;;;8.88;100.00
38285;BME280;24088;42.664;23.354;2022-09-24T05:14:35;95483.59;;;8.98;100.00
38285;BME280;24088;42.664;23.354;2022-09-24T05:15:37;95489.50;;;8.86;100.00
38285;BME280;24088;42.664;23.354;2022-09-24T05:16:37;95488.38;;;8.73;100.00
38285;BME280;24088;42.664;23.354;2022-09-24T05:17:39;95486.41;;;8.77;100.00
38285;BME280;24088;42.664;23.354;2022-09-24T05:18:39;95485.56;;;9.05;100.00
38285;BME280;24088;42.664;23.354;2022-09-24T05:19:41;95475.63;;;9.29;100.00
38285;BME280;24088;42.664;23.354;2022-09-24T05:20:42;95477.16;;;9.37;100.00
38285;BME280;24088;42.664;23.354;2022-09-24T05:21:43;95492.59;;;9.06;100.00
38285;BME280;24088;42.664;23.354;2022-09-24T05:22:44;95483.91;;;9.22;100.00
38285;BME280;24088;42.664;23.354;2022-09-24T05:23:47;95483.34;;;9.56;100.00
38285;BME280;24088;42.664;23.354;2022-09-24T05:24:48;95483.25;;;9.66;100.00
38285;BME280;24088;42.664;23.354;2022-09-24T05:25:49;95484.78;;;9.71;100.00
38285;BME280;24088;42.664;23.354;2022-09-24T05:27:08;95484.72;;;9.82;98.93
38285;BME280;24088;42.664;23.354;2022-09-24T05:28:09;95488.28;;;9.78;98.75
38285;BME280;24088;42.664;23.354;2022-09-24T05:29:09;95482.81;;;9.75;99.47
38285;BME280;24088;42.664;23.354;2022-09-24T05:30:11;95483.53;;;9.86;98.75